Terminal Aerodrome Forecast
Issued by NWS

Home | Current Version | Previous Version | Text Only | Print | Product List | Glossary On
Versions: 1 2 3 4 5 6 7 8 9 10 11 12 13 14 15 16 17 18
000
FTUS46 KSGX 221100
TAFCRQ
TAF
KCRQ 221120Z 2212/2312 VRB03KT P6SM FEW010
      TEMPO 2212/2216 BKN008
     FM221800 26009KT P6SM FEW015
     FM230100 VRB05KT P6SM FEW010
     FM230500 VRB03KT P6SM BKN007=

USA.gov is the U.S. government's official web portal to all federal, state and local government web resources and services.